sensor_id;sensor_type;location;lat;lon;timestamp;temperature;humidity
9977;DHT22;5029;47.378;11.776;2023-04-03T00:04:50;1.40;99.90
9977;DHT22;5029;47.378;11.776;2023-04-03T00:09:55;1.30;99.90
9977;DHT22;5029;47.378;11.776;2023-04-03T00:14:58;1.30;99.90
9977;DHT22;5029;47.378;11.776;2023-04-03T00:20:02;1.30;99.90
9977;DHT22;5029;47.378;11.776;2023-04-03T00:25:09;1.40;99.90
9977;DHT22;5029;47.378;11.776;2023-04-03T00:30:13;1.40;99.90
9977;DHT22;5029;47.378;11.776;2023-04-03T00:35:18;1.30;99.90
9977;DHT22;5029;47.378;11.776;2023-04-03T00:40:24;1.30;99.90
9977;DHT22;5029;47.378;11.776;2023-04-03T00:45:32;1.30;99.90
9977;DHT22;5029;47.378;11.776;2023-04-03T00:50:39;1.30;99.90
9977;DHT22;5029;47.378;11.776;2023-04-03T00:55:45;1.20;99.90
9977;DHT22;5029;47.378;11.776;2023-04-03T01:00:52;1.20;99.90
9977;DHT22;5029;47.378;11.776;2023-04-03T01:05:59;1.20;99.90
9977;DHT22;5029;47.378;11.776;2023-04-03T01:11:04;1.30;99.90
9977;DHT22;5029;47.378;11.776;2023-04-03T01:16:08;1.30;99.90
9977;DHT22;5029;47.378;11.776;2023-04-03T01:26:40;1.10;99.90
9977;DHT22;5029;47.378;11.776;2023-04-03T01:31:51;1.10;99.90
9977;DHT22;5029;47.378;11.776;2023-04-03T01:36:55;1.10;99.90
9977;DHT22;5029;47.378;11.776;2023-04-03T01:41:58;1.10;99.90
9977;DHT22;5029;47.378;11.776;2023-04-03T01:47:05;1.00;99.90
9977;DHT22;5029;47.378;11.776;2023-04-03T01:52:09;1.00;99.90
9977;DHT22;5029;47.378;11.776;2023-04-03T01:57:12;0.90;99.90
9977;DHT22;5029;47.378;11.776;2023-04-03T02:02:18;1.00;99.90
9977;DHT22;5029;47.378;11.776;2023-04-03T02:07:22;1.00;99.90
9977;DHT22;5029;47.378;11.776;2023-04-03T02:12:25;0.80;99.90
9977;DHT22;5029;47.378;11.776;2023-04-03T02:17:30;0.90;99.90
9977;DHT22;5029;47.378;11.776;2023-04-03T02:22:33;0.90;99.90
9977;DHT22;5029;47.378;11.776;2023-04-03T02:27:37;0.90;99.90
9977;DHT22;5029;47.378;11.776;2023-04-03T02:32:42;0.90;99.90
9977;DHT22;5029;47.378;11.776;2023-04-03T02:37:45;0.80;99.90
9977;DHT22;5029;47.378;11.776;2023-04-03T02:42:48;0.70;99.90
9977;DHT22;5029;47.378;11.776;2023-04-03T02:47:53;0.60;99.90
9977;DHT22;5029;47.378;11.776;2023-04-03T02:52:57;0.70;99.90
9977;DHT22;5029;47.378;11.776;2023-04-03T02:58:00;0.70;99.90
9977;DHT22;5029;47.378;11.776;2023-04-03T03:03:05;0.70;99.90
9977;DHT22;5029;47.378;11.776;2023-04-03T03:08:09;0.70;99.90
9977;DHT22;5029;47.378;11.776;2023-04-03T03:13:12;0.70;99.90
9977;DHT22;5029;47.378;11.776;2023-04-03T03:18:17;0.70;99.90
9977;DHT22;5029;47.378;11.776;2023-04-03T03:23:21;0.70;99.90
9977;DHT22;5029;47.378;11.776;2023-04-03T03:28:25;0.70;99.90
9977;DHT22;5029;47.378;11.776;2023-04-03T03:33:30;0.70;99.90
9977;DHT22;5029;47.378;11.776;2023-04-03T03:38:34;0.70;99.90
9977;DHT22;5029;47.378;11.776;2023-04-03T03:43:38;0.60;99.90
9977;DHT22;5029;47.378;11.776;2023-04-03T03:48:43;0.70;99.90
9977;DHT22;5029;47.378;11.776;2023-04-03T03:53:46;0.70;99.90
9977;DHT22;5029;47.378;11.776;2023-04-03T03:58:50;0.60;99.90
9977;DHT22;5029;47.378;11.776;2023-04-03T04:03:55;0.60;99.90
9977;DHT22;5029;47.378;11.776;2023-04-03T04:08:59;0.70;99.90
9977;DHT22;5029;47.378;11.776;2023-04-03T04:14:03;0.70;99.90
9977;DHT22;5029;47.378;11.776;2023-04-03T04:19:08;0.60;99.90
9977;DHT22;5029;47.378;11.776;2023-04-03T04:24:11;0.60;99.90
9977;DHT22;5029;47.378;11.776;2023-04-03T04:29:15;0.60;99.90
9977;DHT22;5029;47.378;11.776;2023-04-03T04:34:19;0.60;99.90
9977;DHT22;5029;47.378;11.776;2023-04-03T04:39:23;0.60;99.90
9977;DHT22;5029;47.378;11.776;2023-04-03T04:44:26;0.60;99.90
9977;DHT22;5029;47.378;11.776;2023-04-03T04:49:31;0.60;99.90
9977;DHT22;5029;47.378;11.776;2023-04-03T04:54:35;0.60;99.90
9977;DHT22;5029;47.378;11.776;2023-04-03T04:59:38;0.70;99.90
9977;DHT22;5029;47.378;11.776;2023-04-03T05:04:43;0.60;99.90
9977;DHT22;5029;47.378;11.776;2023-04-03T05:09:46;0.60;99.90
9977;DHT22;5029;47.378;11.776;2023-04-03T05:14:50;0.50;99.90
9977;DHT22;5029;47.378;11.776;2023-04-03T05:19:54;0.60;99.90
9977;DHT22;5029;47.378;11.776;2023-04-03T05:24:58;0.50;99.90
9977;DHT22;5029;47.378;11.776;2023-04-03T05:30:01;0.60;99.90
9977;DHT22;5029;47.378;11.776;2023-04-03T05:35:08;0.60;99.90
9977;DHT22;5029;47.378;11.776;2023-04-03T05:40:11;0.60;99.90
9977;DHT22;5029;47.378;11.776;2023-04-03T05:45:15;0.50;99.90
9977;DHT22;5029;47.378;11.776;2023-04-03T05:50:20;0.60;99.90
9977;DHT22;5029;47.378;11.776;2023-04-03T05:55:23;0.60;99.90
9977;DHT22;5029;47.378;11.776;2023-04-03T06:00:26;0.60;99.90
9977;DHT22;5029;47.378;11.776;2023-04-03T06:05:32;0.60;99.90
9977;DHT22;5029;47.378;11.776;2023-04-03T06:10:35;0.70;99.90
9977;DHT22;5029;47.378;11.776;2023-04-03T06:15:40;0.80;99.90
9977;DHT22;5029;47.378;11.776;2023-04-03T06:20:45;0.70;99.90
9977;DHT22;5029;47.378;11.776;2023-04-03T06:25:48;0.70;99.90
9977;DHT22;5029;47.378;11.776;2023-04-03T06:30:52;0.80;99.90
9977;DHT22;5029;47.378;11.776;2023-04-03T06:35:57;0.80;99.90
9977;DHT22;5029;47.378;11.776;2023-04-03T06:41:01;0.90;99.90
9977;DHT22;5029;47.378;11.776;2023-04-03T06:46:04;0.80;99.90
9977;DHT22;5029;47.378;11.776;2023-04-03T06:51:15;0.90;99.90
9977;DHT22;5029;47.378;11.776;2023-04-03T06:56:20;1.00;99.90
9977;DHT22;5029;47.378;11.776;2023-04-03T07:01:28;1.00;99.90
9977;DHT22;5029;47.378;11.776;2023-04-03T07:06:33;1.00;99.90
9977;DHT22;5029;47.378;11.776;2023-04-03T07:11:36;1.10;99.90
9977;DHT22;5029;47.378;11.776;2023-04-03T07:16:40;1.20;99.90
9977;DHT22;5029;47.378;11.776;2023-04-03T07:21:45;1.20;99.90
9977;DHT22;5029;47.378;11.776;2023-04-03T07:26:49;1.20;99.90
9977;DHT22;5029;47.378;11.776;2023-04-03T07:31:52;1.40;99.90
9977;DHT22;5029;47.378;11.776;2023-04-03T07:36:58;1.40;99.90
9977;DHT22;5029;47.378;11.776;2023-04-03T07:42:03;1.50;99.90
9977;DHT22;5029;47.378;11.776;2023-04-03T07:47:06;1.50;99.90
9977;DHT22;5029;47.378;11.776;2023-04-03T07:52:11;1.50;99.90
9977;DHT22;5029;47.378;11.776;2023-04-03T07:57:16;1.60;99.90
9977;DHT22;5029;47.378;11.776;2023-04-03T08:02:19;1.70;99.90
9977;DHT22;5029;47.378;11.776;2023-04-03T08:07:24;1.80;99.90
9977;DHT22;5029;47.378;11.776;2023-04-03T08:12:28;1.80;99.90
9977;DHT22;5029;47.378;11.776;2023-04-03T08:17:31;2.00;99.90
9977;DHT22;5029;47.378;11.776;2023-04-03T08:22:36;2.30;99.90
9977;DHT22;5029;47.378;11.776;2023-04-03T08:27:39;2.40;99.90
9977;DHT22;5029;47.378;11.776;2023-04-03T08:32:43;2.40;99.90
9977;DHT22;5029;47.378;11.776;2023-04-03T08:37:48;2.60;99.90
9977;DHT22;5029;47.378;11.776;2023-04-03T08:42:58;2.60;99.90
9977;DHT22;5029;47.378;11.776;2023-04-03T08:48:09;2.90;99.90
9977;DHT22;5029;47.378;11.776;2023-04-03T08:53:19;3.00;99.90
9977;DHT22;5029;47.378;11.776;2023-04-03T08:58:25;2.90;99.90
9977;DHT22;5029;47.378;11.776;2023-04-03T09:03:31;3.30;99.90
9977;DHT22;5029;47.378;11.776;2023-04-03T09:08:42;3.40;99.90
9977;DHT22;5029;47.378;11.776;2023-04-03T09:13:51;3.50;99.90
9977;DHT22;5029;47.378;11.776;2023-04-03T09:19:02;3.90;99.90
9977;DHT22;5029;47.378;11.776;2023-04-03T09:24:14;3.30;99.90
9977;DHT22;5029;47.378;11.776;2023-04-03T09:29:19;2.90;99.90
9977;DHT22;5029;47.378;11.776;2023-04-03T09:34:27;2.70;99.90
9977;DHT22;5029;47.378;11.776;2023-04-03T09:39:49;2.90;99.90
9977;DHT22;5029;47.378;11.776;2023-04-03T09:44:54;2.80;99.90
9977;DHT22;5029;47.378;11.776;2023-04-03T09:50:19;2.90;99.90
9977;DHT22;5029;47.378;11.776;2023-04-03T09:55:25;2.90;99.90
9977;DHT22;5029;47.378;11.776;2023-04-03T10:00:34;2.90;99.90
9977;DHT22;5029;47.378;11.776;2023-04-03T10:05:40;2.90;99.90
9977;DHT22;5029;47.378;11.776;2023-04-03T10:10:46;2.80;99.90
9977;DHT22;5029;47.378;11.776;2023-04-03T10:15:52;2.70;99.90
9977;DHT22;5029;47.378;11.776;2023-04-03T10:21:02;2.70;99.90
9977;DHT22;5029;47.378;11.776;2023-04-03T10:26:20;2.60;99.90
9977;DHT22;5029;47.378;11.776;2023-04-03T10:31:31;2.60;99.90
9977;DHT22;5029;47.378;11.776;2023-04-03T10:36:40;2.40;99.90
9977;DHT22;5029;47.378;11.776;2023-04-03T10:42:00;2.40;99.90
9977;DHT22;5029;47.378;11.776;2023-04-03T10:47:20;2.60;99.90
9977;DHT22;5029;47.378;11.776;2023-04-03T10:52:30;2.70;99.90
9977;DHT22;5029;47.378;11.776;2023-04-03T10:57:43;2.70;99.90
9977;DHT22;5029;47.378;11.776;2023-04-03T11:02:51;2.60;99.90
9977;DHT22;5029;47.378;11.776;2023-04-03T11:07:55;2.80;99.90
9977;DHT22;5029;47.378;11.776;2023-04-03T11:13:06;2.90;99.90
9977;DHT22;5029;47.378;11.776;2023-04-03T11:18:15;3.00;99.90
9977;DHT22;5029;47.378;11.776;2023-04-03T11:23:22;3.10;99.90
9977;DHT22;5029;47.378;11.776;2023-04-03T11:28:44;3.10;99.90
9977;DHT22;5029;47.378;11.776;2023-04-03T11:33:54;3.10;99.90
9977;DHT22;5029;47.378;11.776;2023-04-03T11:39:01;3.10;99.90
9977;DHT22;5029;47.378;11.776;2023-04-03T11:44:34;3.10;99.90
9977;DHT22;5029;47.378;11.776;2023-04-03T11:49:56;3.10;99.90
9977;DHT22;5029;47.378;11.776;2023-04-03T11:55:00;3.30;99.90
9977;DHT22;5029;47.378;11.776;2023-04-03T12:05:41;3.20;99.90
9977;DHT22;5029;47.378;11.776;2023-04-03T12:11:14;3.40;99.90
9977;DHT22;5029;47.378;11.776;2023-04-03T12:16:20;3.40;99.90
9977;DHT22;5029;47.378;11.776;2023-04-03T12:27:38;3.40;99.90
9977;DHT22;5029;47.378;11.776;2023-04-03T12:32:51;3.40;99.90
9977;DHT22;5029;47.378;11.776;2023-04-03T12:38:32;3.30;99.90
9977;DHT22;5029;47.378;11.776;2023-04-03T12:43:55;3.40;99.90
9977;DHT22;5029;47.378;11.776;2023-04-03T12:49:02;3.50;99.90
9977;DHT22;5029;47.378;11.776;2023-04-03T12:54:19;3.40;99.90
9977;DHT22;5029;47.378;11.776;2023-04-03T12:59:26;3.30;99.90
9977;DHT22;5029;47.378;11.776;2023-04-03T13:04:31;3.30;99.90
9977;DHT22;5029;47.378;11.776;2023-04-03T13:09:36;3.40;99.90
9977;DHT22;5029;47.378;11.776;2023-04-03T13:14:40;3.40;99.90
9977;DHT22;5029;47.378;11.776;2023-04-03T13:19:44;3.40;99.90
9977;DHT22;5029;47.378;11.776;2023-04-03T13:24:51;3.30;99.90
9977;DHT22;5029;47.378;11.776;2023-04-03T13:29:57;3.50;99.90
9977;DHT22;5029;47.378;11.776;2023-04-03T13:35:01;3.50;99.90
9977;DHT22;5029;47.378;11.776;2023-04-03T13:40:21;3.40;99.90
9977;DHT22;5029;47.378;11.776;2023-04-03T13:45:54;3.30;99.90
9977;DHT22;5029;47.378;11.776;2023-04-03T13:51:00;3.20;99.90
9977;DHT22;5029;47.378;11.776;2023-04-03T13:56:15;3.40;99.90
9977;DHT22;5029;47.378;11.776;2023-04-03T14:01:21;3.40;99.90
9977;DHT22;5029;47.378;11.776;2023-04-03T14:06:25;3.40;99.90
9977;DHT22;5029;47.378;11.776;2023-04-03T14:11:30;3.40;99.90
9977;DHT22;5029;47.378;11.776;2023-04-03T14:16:38;3.50;99.90
9977;DHT22;5029;47.378;11.776;2023-04-03T14:21:43;3.50;99.90
9977;DHT22;5029;47.378;11.776;2023-04-03T14:26:49;3.60;99.90
9977;DHT22;5029;47.378;11.776;2023-04-03T14:31:52;3.70;99.90
9977;DHT22;5029;47.378;11.776;2023-04-03T14:37:16;3.80;99.90
9977;DHT22;5029;47.378;11.776;2023-04-03T14:42:23;3.80;99.90
9977;DHT22;5029;47.378;11.776;2023-04-03T14:47:28;3.80;99.90
9977;DHT22;5029;47.378;11.776;2023-04-03T14:52:34;4.00;99.90
9977;DHT22;5029;47.378;11.776;2023-04-03T14:57:40;3.50;99.90
9977;DHT22;5029;47.378;11.776;2023-04-03T15:02:44;3.10;99.90
9977;DHT22;5029;47.378;11.776;2023-04-03T15:07:53;3.00;99.90
9977;DHT22;5029;47.378;11.776;2023-04-03T15:12:58;2.70;99.90
9977;DHT22;5029;47.378;11.776;2023-04-03T15:18:02;2.70;99.90
9977;DHT22;5029;47.378;11.776;2023-04-03T15:23:06;2.60;99.90
9977;DHT22;5029;47.378;11.776;2023-04-03T15:28:17;2.60;99.90
9977;DHT22;5029;47.378;11.776;2023-04-03T15:33:22;2.60;99.90
9977;DHT22;5029;47.378;11.776;2023-04-03T15:38:25;2.70;99.90
9977;DHT22;5029;47.378;11.776;2023-04-03T15:43:30;2.40;99.90
9977;DHT22;5029;47.378;11.776;2023-04-03T15:48:36;2.30;99.90
9977;DHT22;5029;47.378;11.776;2023-04-03T15:53:39;2.80;99.90
9977;DHT22;5029;47.378;11.776;2023-04-03T15:58:44;2.70;99.90
9977;DHT22;5029;47.378;11.776;2023-04-03T16:03:47;3.70;99.90
9977;DHT22;5029;47.378;11.776;2023-04-03T16:08:51;3.30;99.90
9977;DHT22;5029;47.378;11.776;2023-04-03T16:14:00;3.40;99.90
9977;DHT22;5029;47.378;11.776;2023-04-03T16:19:03;2.90;99.90
9977;DHT22;5029;47.378;11.776;2023-04-03T16:24:07;2.70;99.90
9977;DHT22;5029;47.378;11.776;2023-04-03T16:29:13;2.40;99.90
9977;DHT22;5029;47.378;11.776;2023-04-03T16:34:16;2.20;99.90
9977;DHT22;5029;47.378;11.776;2023-04-03T16:39:20;1.80;99.90
9977;DHT22;5029;47.378;11.776;2023-04-03T16:44:24;1.80;99.90
9977;DHT22;5029;47.378;11.776;2023-04-03T16:49:28;2.50;99.90
9977;DHT22;5029;47.378;11.776;2023-04-03T16:54:36;2.00;99.90
9977;DHT22;5029;47.378;11.776;2023-04-03T16:59:41;2.00;99.90
9977;DHT22;5029;47.378;11.776;2023-04-03T17:04:45;2.20;99.90
9977;DHT22;5029;47.378;11.776;2023-04-03T17:09:51;2.30;99.90
9977;DHT22;5029;47.378;11.776;2023-04-03T17:14:57;2.70;99.90
9977;DHT22;5029;47.378;11.776;2023-04-03T17:20:02;2.40;99.90
9977;DHT22;5029;47.378;11.776;2023-04-03T17:25:06;2.10;99.90
9977;DHT22;5029;47.378;11.776;2023-04-03T17:30:13;1.90;99.90
9977;DHT22;5029;47.378;11.776;2023-04-03T17:35:18;1.80;99.90
9977;DHT22;5029;47.378;11.776;2023-04-03T17:40:22;1.70;99.90
9977;DHT22;5029;47.378;11.776;2023-04-03T17:45:27;1.60;99.90
9977;DHT22;5029;47.378;11.776;2023-04-03T17:50:31;1.70;99.90
9977;DHT22;5029;47.378;11.776;2023-04-03T17:55:38;1.80;99.90
9977;DHT22;5029;47.378;11.776;2023-04-03T18:00:44;1.20;99.90
9977;DHT22;5029;47.378;11.776;2023-04-03T18:05:48;1.20;99.90
9977;DHT22;5029;47.378;11.776;2023-04-03T18:10:56;1.30;99.90
9977;DHT22;5029;47.378;11.776;2023-04-03T18:16:02;1.10;99.90
9977;DHT22;5029;47.378;11.776;2023-04-03T18:21:09;1.00;99.90
9977;DHT22;5029;47.378;11.776;2023-04-03T18:26:15;1.00;99.90
9977;DHT22;5029;47.378;11.776;2023-04-03T18:31:25;1.00;99.90
9977;DHT22;5029;47.378;11.776;2023-04-03T18:36:33;1.00;99.90
9977;DHT22;5029;47.378;11.776;2023-04-03T18:41:40;1.10;99.90
9977;DHT22;5029;47.378;11.776;2023-04-03T18:46:53;1.10;99.90
9977;DHT22;5029;47.378;11.776;2023-04-03T18:52:02;1.10;99.90
9977;DHT22;5029;47.378;11.776;2023-04-03T18:57:07;1.10;99.90
9977;DHT22;5029;47.378;11.776;2023-04-03T19:02:14;1.00;99.90
9977;DHT22;5029;47.378;11.776;2023-04-03T19:07:20;0.90;99.90
9977;DHT22;5029;47.378;11.776;2023-04-03T19:12:24;0.80;99.90
9977;DHT22;5029;47.378;11.776;2023-04-03T19:17:31;0.90;99.90
9977;DHT22;5029;47.378;11.776;2023-04-03T19:22:36;0.80;99.90
9977;DHT22;5029;47.378;11.776;2023-04-03T19:27:41;0.80;99.90
9977;DHT22;5029;47.378;11.776;2023-04-03T19:32:48;0.70;99.90
9977;DHT22;5029;47.378;11.776;2023-04-03T19:37:53;0.70;99.90
9977;DHT22;5029;47.378;11.776;2023-04-03T19:42:58;0.60;99.90
9977;DHT22;5029;47.378;11.776;2023-04-03T19:48:05;0.60;99.90
9977;DHT22;5029;47.378;11.776;2023-04-03T19:53:10;0.70;99.90
9977;DHT22;5029;47.378;11.776;2023-04-03T19:58:22;0.50;99.90
9977;DHT22;5029;47.378;11.776;2023-04-03T20:03:30;0.50;99.90
9977;DHT22;5029;47.378;11.776;2023-04-03T20:08:37;0.60;99.90
9977;DHT22;5029;47.378;11.776;2023-04-03T20:13:40;0.70;99.90
9977;DHT22;5029;47.378;11.776;2023-04-03T20:18:45;0.50;99.90
9977;DHT22;5029;47.378;11.776;2023-04-03T20:23:53;0.30;99.90
9977;DHT22;5029;47.378;11.776;2023-04-03T20:28:59;0.20;99.90
9977;DHT22;5029;47.378;11.776;2023-04-03T20:34:05;0.30;99.90
9977;DHT22;5029;47.378;11.776;2023-04-03T20:39:09;0.20;99.90
9977;DHT22;5029;47.378;11.776;2023-04-03T20:44:12;0.30;99.90
9977;DHT22;5029;47.378;11.776;2023-04-03T20:49:17;0.30;99.90
9977;DHT22;5029;47.378;11.776;2023-04-03T20:54:22;0.20;99.90
9977;DHT22;5029;47.378;11.776;2023-04-03T20:59:26;0.30;99.90
9977;DHT22;5029;47.378;11.776;2023-04-03T21:04:35;0.30;99.90
9977;DHT22;5029;47.378;11.776;2023-04-03T21:20:50;0.10;99.90
9977;DHT22;5029;47.378;11.776;2023-04-03T21:25:53;0.20;99.90
9977;DHT22;5029;47.378;11.776;2023-04-03T21:30:57;0.20;99.90
9977;DHT22;5029;47.378;11.776;2023-04-03T21:36:01;0.20;99.90
9977;DHT22;5029;47.378;11.776;2023-04-03T21:41:05;0.20;99.90
9977;DHT22;5029;47.378;11.776;2023-04-03T21:46:08;0.30;99.90
9977;DHT22;5029;47.378;11.776;2023-04-03T21:51:13;0.00;99.90
9977;DHT22;5029;47.378;11.776;2023-04-03T21:56:18;-0.10;99.90
9977;DHT22;5029;47.378;11.776;2023-04-03T22:01:23;-0.10;99.90
9977;DHT22;5029;47.378;11.776;2023-04-03T22:06:28;-0.10;99.90
9977;DHT22;5029;47.378;11.776;2023-04-03T22:11:31;-0.20;99.90
9977;DHT22;5029;47.378;11.776;2023-04-03T22:16:35;-0.20;99.90
9977;DHT22;5029;47.378;11.776;2023-04-03T22:21:41;-0.30;99.90
9977;DHT22;5029;47.378;11.776;2023-04-03T22:26:44;-0.30;99.90
9977;DHT22;5029;47.378;11.776;2023-04-03T22:31:48;-0.20;99.90
9977;DHT22;5029;47.378;11.776;2023-04-03T22:37:26;-0.20;99.90
9977;DHT22;5029;47.378;11.776;2023-04-03T22:42:30;-0.30;99.90
9977;DHT22;5029;47.378;11.776;2023-04-03T22:47:33;-0.40;99.90
9977;DHT22;5029;47.378;11.776;2023-04-03T22:52:39;-0.50;99.90
9977;DHT22;5029;47.378;11.776;2023-04-03T22:57:45;-0.60;99.90
9977;DHT22;5029;47.378;11.776;2023-04-03T23:02:48;-0.50;99.90
9977;DHT22;5029;47.378;11.776;2023-04-03T23:07:54;-0.70;99.90
9977;DHT22;5029;47.378;11.776;2023-04-03T23:12:57;-0.80;99.90
9977;DHT22;5029;47.378;11.776;2023-04-03T23:18:00;-0.80;99.90
9977;DHT22;5029;47.378;11.776;2023-04-03T23:23:05;-0.90;99.90
9977;DHT22;5029;47.378;11.776;2023-04-03T23:28:09;-0.70;99.90
9977;DHT22;5029;47.378;11.776;2023-04-03T23:33:12;-0.70;99.90
9977;DHT22;5029;47.378;11.776;2023-04-03T23:38:17;-0.90;99.90
9977;DHT22;5029;47.378;11.776;2023-04-03T23:43:21;-0.80;99.90
9977;DHT22;5029;47.378;11.776;2023-04-03T23:48:24;-0.90;99.90
9977;DHT22;5029;47.378;11.776;2023-04-03T23:53:29;-0.90;99.90
9977;DHT22;5029;47.378;11.776;2023-04-03T23:58:32;-0.90;99.90
